This is the latest recevied weather packets stored in our database for station/object W1CAT. If no packets are shown the sender has not sent any weather packets the latest 10 day(s).
| Time | Temp. | Humidity | Pressure | Rain* | Wind** | Luminosity | Snow |
|---|---|---|---|---|---|---|---|
| 1777918905 | 10.56° C | 52% | - | 0 mm | - | - | - |
| 1777918603 | 11.67° C | 47% | - | 0 mm | - | - | - |
| 1777918300 | 12.78° C | 43% | - | 0 mm | - | - | - |
| 1777918000 | 13.89° C | 38% | - | 0 mm | - | - | - |
| 1777917698 | 13.89° C | 34% | - | 0 mm | - | - | - |
| 1777917395 | 14.44° C | 33% | - | 0 mm | - | - | - |
| 1777917091 | 13.89° C | 34% | - | 0 mm | - | - | - |
| 1777916790 | 13.89° C | 34% | - | 0 mm | - | - | - |
| 1777916485 | 13.89° C | 34% | - | 0 mm | - | - | - |
| 1777916183 | 14.44° C | 35% | - | 0 mm | - | - | - |
| 1777915880 | 13.89° C | 36% | - | 0 mm | - | - | - |
| 1777915577 | 13.89° C | 35% | - | 0 mm | - | - | - |
| 1777915273 | 13.89° C | 35% | - | 0 mm | - | - | - |
| 1777914970 | 13.89° C | 34% | - | 0 mm | - | - | - |
| 1777914667 | 14.44° C | 35% | - | 0 mm | - | - | - |
| 1777914362 | 14.44° C | 36% | - | 0 mm | - | - | - |
| 1777914060 | 13.89° C | 35% | - | 0 mm | - | - | - |
| 1777913756 | 13.33° C | 36% | - | 0 mm | - | - | - |
| 1777913453 | 13.89° C | 36% | - | 0 mm | - | - | - |
| 1777913149 | 13.89° C | 35% | - | 0 mm | - | - | - |
| 1777912846 | 15.56° C | 34% | - | 0 mm | - | - | - |
| 1777912543 | 16.11° C | 35% | - | 0 mm | - | - | - |
| 1777912239 | 15° C | 37% | - | 0 mm | - | - | - |
| 1777911935 | 15.56° C | 36% | - | 0 mm | - | - | - |
| 1777911631 | 15° C | 36% | - | 0 mm | - | - | - |
* Rain latest hour (hover to see other rain measurements)
** Current wind speed in m/s (hover to see current wind gust speed)